In Rescue
 
Open Full Screen Window  High Contrast Mode
Wind Gusting 00 knots
04
September 19, 2019 4:15 PM CDT
Weather Information
Wind Direction
  180 °
Wind Speed
  04 kt (5 mph)
Wind Gust
  00 kt (0 mph)
Altimeter
29.98 in
Visibility
10 SM
Temperature
27° C
81° F
Dewpoint
16° C
61° F
Humidity
51%
1hr Rain Fall
00.00 in.
24hr Rain Fall
00.00 in.
Sky Condition
Clear
VFR

METAR KY63 192115Z AUTO 18004KT 10SM CLR 27/16 A2998 RMK AO2 T02670159

FAA Disclaimer: The data displayed is for advisory purposes only and is not to be used for flight planning or operations.